Albany, MN (56307)

1:53 AM CST on December 08, 2016 (GMT -0600)
Stratford Addition | | Change Station

Elev 1125 ft 45.60 °N, 94.47 °W | Updated 51 seconds ago

Overcast
Overcast
14.5 °F
Feels Like 0 °F
N
13.0
Wind Variable Wind from WSW

Today
High -- | Low -- °F
--% Chance of Precip.
Yesterday
High -- | Low -- °F
Precip. -- in
Pressure 30.16 in
Visibility 7.0 miles
Clouds Scattered Clouds 1000 ft
Mostly Cloudy 2200 ft
Overcast 9500 ft
Windchill 0 °F
Dew Point 12 °F
Humidity 91%
Rainfall 0.00 in
Snow Depth Not available.
7:46 AM 4:34 PM
First Quarter, 61% visible
METAR KD39 080659Z AUTO 29012KT 7SM -SN SCT010 BKN022 OVC095 M11/M13 A3016 RMK AO2
Pressure 30.16 in
Visibility 7.0 miles
Clouds Scattered Clouds 1000 ft
Mostly Cloudy 2200 ft
Overcast 9500 ft
Windchill 0 °F
Dew Point 12 °F
Humidity 91%
Rainfall 0.00 in
Snow Depth Not available.
7:46 AM 4:34 PM
First Quarter, 61% visible
METAR KD39 080659Z AUTO 29012KT 7SM -SN SCT010 BKN022 OVC095 M11/M13 A3016 RMK AO2

10-Day Weather Forecast

Almanac

Astronomy

Dec. 08, 2016 Rise Set
Actual Time
Civil Twilight
Nautical Twilight
Astronomical Twilight
Moon
Length of Visible Light
Length of Day
Tomorrow will be .
, % of the Moon is Illuminated

Today's Extremes

State Highs State Lows

Community

WunderPhotos

Upload Photos

1,956,259 photos uploaded!

WunderBlog® & News

Nearby

Air Quality

  Air Quality AQ Index Pollutant
Not available.

Snow Depth

Station Depth Elevation

Earthquake Activity

City Distance Mag. Time & Date
Minimum magnitude displayed is 2.5.

Coastal Water Temperatures

Place Temperature

Stations

Nearby Weather Stations

Station Location Temp. Windchill Dew Point Humidity Wind Precip. Elev Updated Type
                   

Watches & Warnings

There are currently no watches in effect.